sensor_id;sensor_type;location;lat;lon;timestamp;P1;durP1;ratioP1;P2;durP2;ratioP2
20593;SDS011;10455;48.732;10.266;2023-06-10T00:00:54;647.77;;;613.60;;
20593;SDS011;10455;48.732;10.266;2023-06-10T00:05:56;604.67;;;574.37;;
20593;SDS011;10455;48.732;10.266;2023-06-10T00:11:00;630.97;;;598.43;;
20593;SDS011;10455;48.732;10.266;2023-06-10T00:16:02;658.43;;;623.77;;
20593;SDS011;10455;48.732;10.266;2023-06-10T00:21:04;641.17;;;608.17;;
20593;SDS011;10455;48.732;10.266;2023-06-10T00:26:07;589.03;;;559.93;;
20593;SDS011;10455;48.732;10.266;2023-06-10T00:31:09;647.93;;;613.20;;
20593;SDS011;10455;48.732;10.266;2023-06-10T00:36:11;569.63;;;541.93;;
20593;SDS011;10455;48.732;10.266;2023-06-10T00:41:14;561.90;;;534.50;;
20593;SDS011;10455;48.732;10.266;2023-06-10T00:46:16;572.87;;;544.87;;
20593;SDS011;10455;48.732;10.266;2023-06-10T00:51:19;579.83;;;550.70;;
20593;SDS011;10455;48.732;10.266;2023-06-10T00:56:23;553.63;;;526.77;;
20593;SDS011;10455;48.732;10.266;2023-06-10T01:01:25;525.93;;;500.83;;
20593;SDS011;10455;48.732;10.266;2023-06-10T01:06:32;575.70;;;546.80;;
20593;SDS011;10455;48.732;10.266;2023-06-10T01:11:40;567.03;;;538.20;;
20593;SDS011;10455;48.732;10.266;2023-06-10T01:16:47;694.80;;;651.60;;
20593;SDS011;10455;48.732;10.266;2023-06-10T01:21:51;1198.63;;;825.37;;
20593;SDS011;10455;48.732;10.266;2023-06-10T01:26:55;1228.20;;;852.90;;
20593;SDS011;10455;48.732;10.266;2023-06-10T01:32:01;654.47;;;613.93;;
20593;SDS011;10455;48.732;10.266;2023-06-10T01:37:08;796.77;;;739.40;;
20593;SDS011;10455;48.732;10.266;2023-06-10T01:42:14;630.10;;;596.17;;
20593;SDS011;10455;48.732;10.266;2023-06-10T01:47:16;693.07;;;650.13;;
20593;SDS011;10455;48.732;10.266;2023-06-10T01:52:19;784.00;;;730.80;;
20593;SDS011;10455;48.732;10.266;2023-06-10T01:57:21;530.77;;;504.70;;
20593;SDS011;10455;48.732;10.266;2023-06-10T02:02:23;590.47;;;559.90;;
20593;SDS011;10455;48.732;10.266;2023-06-10T02:07:26;747.97;;;699.60;;
20593;SDS011;10455;48.732;10.266;2023-06-10T02:12:28;696.17;;;653.90;;
20593;SDS011;10455;48.732;10.266;2023-06-10T02:17:30;1158.13;;;792.13;;
20593;SDS011;10455;48.732;10.266;2023-06-10T02:22:35;690.97;;;647.37;;
20593;SDS011;10455;48.732;10.266;2023-06-10T02:27:36;1157.03;;;792.83;;
20593;SDS011;10455;48.732;10.266;2023-06-10T02:32:38;1132.27;;;768.10;;
20593;SDS011;10455;48.732;10.266;2023-06-10T02:37:42;1999.90;;;999.90;;
20593;SDS011;10455;48.732;10.266;2023-06-10T02:42:44;1999.90;;;999.90;;
20593;SDS011;10455;48.732;10.266;2023-06-10T02:47:46;1999.90;;;999.90;;
20593;SDS011;10455;48.732;10.266;2023-06-10T02:52:50;645.33;;;607.37;;
20593;SDS011;10455;48.732;10.266;2023-06-10T02:57:51;601.83;;;568.53;;
20593;SDS011;10455;48.732;10.266;2023-06-10T03:02:54;518.67;;;493.03;;
20593;SDS011;10455;48.732;10.266;2023-06-10T03:07:58;728.87;;;680.83;;
20593;SDS011;10455;48.732;10.266;2023-06-10T03:13:00;1196.53;;;827.10;;
20593;SDS011;10455;48.732;10.266;2023-06-10T03:18:02;822.57;;;768.20;;
20593;SDS011;10455;48.732;10.266;2023-06-10T03:23:06;1211.63;;;841.10;;
20593;SDS011;10455;48.732;10.266;2023-06-10T03:28:09;1999.90;;;999.90;;
20593;SDS011;10455;48.732;10.266;2023-06-10T03:33:11;626.43;;;590.07;;
20593;SDS011;10455;48.732;10.266;2023-06-10T03:38:15;737.73;;;691.30;;
20593;SDS011;10455;48.732;10.266;2023-06-10T03:43:17;706.83;;;662.40;;
20593;SDS011;10455;48.732;10.266;2023-06-10T03:48:20;833.53;;;773.70;;
20593;SDS011;10455;48.732;10.266;2023-06-10T03:53:23;1165.07;;;798.90;;
20593;SDS011;10455;48.732;10.266;2023-06-10T03:58:25;648.67;;;613.03;;
20593;SDS011;10455;48.732;10.266;2023-06-10T04:03:27;860.63;;;794.57;;
20593;SDS011;10455;48.732;10.266;2023-06-10T04:08:30;930.63;;;862.23;;
20593;SDS011;10455;48.732;10.266;2023-06-10T04:13:32;686.17;;;648.97;;
20593;SDS011;10455;48.732;10.266;2023-06-10T04:18:34;616.10;;;583.37;;
20593;SDS011;10455;48.732;10.266;2023-06-10T04:23:38;773.33;;;727.17;;
20593;SDS011;10455;48.732;10.266;2023-06-10T04:28:40;600.97;;;568.38;;
20593;SDS011;10455;48.732;10.266;2023-06-10T04:33:44;217.27;;;207.50;;
20593;SDS011;10455;48.732;10.266;2023-06-10T04:38:47;124.43;;;118.95;;
20593;SDS011;10455;48.732;10.266;2023-06-10T04:43:49;90.97;;;87.15;;
20593;SDS011;10455;48.732;10.266;2023-06-10T04:48:51;100.07;;;95.93;;
20593;SDS011;10455;48.732;10.266;2023-06-10T04:53:55;176.68;;;169.55;;
20593;SDS011;10455;48.732;10.266;2023-06-10T04:58:57;159.85;;;153.35;;
20593;SDS011;10455;48.732;10.266;2023-06-10T05:03:59;164.38;;;157.50;;
20593;SDS011;10455;48.732;10.266;2023-06-10T05:09:02;238.73;;;228.70;;
20593;SDS011;10455;48.732;10.266;2023-06-10T05:14:05;222.85;;;213.38;;
20593;SDS011;10455;48.732;10.266;2023-06-10T05:19:07;448.15;;;422.45;;
20593;SDS011;10455;48.732;10.266;2023-06-10T05:24:10;323.45;;;307.90;;
20593;SDS011;10455;48.732;10.266;2023-06-10T05:29:12;383.25;;;364.70;;
20593;SDS011;10455;48.732;10.266;2023-06-10T05:34:15;352.92;;;337.50;;
20593;SDS011;10455;48.732;10.266;2023-06-10T05:39:18;296.08;;;283.30;;
20593;SDS011;10455;48.732;10.266;2023-06-10T05:44:20;367.60;;;349.65;;
20593;SDS011;10455;48.732;10.266;2023-06-10T05:49:22;366.13;;;346.77;;
20593;SDS011;10455;48.732;10.266;2023-06-10T05:54:25;318.85;;;304.55;;
20593;SDS011;10455;48.732;10.266;2023-06-10T05:59:27;336.98;;;321.10;;
20593;SDS011;10455;48.732;10.266;2023-06-10T06:04:29;317.73;;;300.70;;
20593;SDS011;10455;48.732;10.266;2023-06-10T06:09:33;302.70;;;289.15;;
20593;SDS011;10455;48.732;10.266;2023-06-10T06:14:36;319.20;;;302.70;;
20593;SDS011;10455;48.732;10.266;2023-06-10T06:19:40;487.70;;;455.60;;
20593;SDS011;10455;48.732;10.266;2023-06-10T06:24:43;372.48;;;356.10;;
20593;SDS011;10455;48.732;10.266;2023-06-10T06:29:45;564.22;;;523.67;;
20593;SDS011;10455;48.732;10.266;2023-06-10T06:34:46;459.23;;;432.58;;
20593;SDS011;10455;48.732;10.266;2023-06-10T06:39:51;444.98;;;419.95;;
20593;SDS011;10455;48.732;10.266;2023-06-10T06:44:53;289.77;;;276.92;;
20593;SDS011;10455;48.732;10.266;2023-06-10T06:49:55;378.27;;;359.05;;
20593;SDS011;10455;48.732;10.266;2023-06-10T06:54:58;520.78;;;487.35;;
20593;SDS011;10455;48.732;10.266;2023-06-10T07:00:00;451.52;;;428.98;;
20593;SDS011;10455;48.732;10.266;2023-06-10T07:05:02;327.98;;;312.77;;
20593;SDS011;10455;48.732;10.266;2023-06-10T07:10:06;262.67;;;251.15;;
20593;SDS011;10455;48.732;10.266;2023-06-10T07:15:09;368.10;;;351.92;;
20593;SDS011;10455;48.732;10.266;2023-06-10T07:20:11;412.40;;;392.33;;
20593;SDS011;10455;48.732;10.266;2023-06-10T07:25:16;529.47;;;495.42;;
20593;SDS011;10455;48.732;10.266;2023-06-10T07:30:18;541.85;;;507.75;;
20593;SDS011;10455;48.732;10.266;2023-06-10T07:35:20;390.40;;;371.77;;
20593;SDS011;10455;48.732;10.266;2023-06-10T07:40:23;410.65;;;390.70;;
20593;SDS011;10455;48.732;10.266;2023-06-10T07:45:25;381.35;;;362.73;;
20593;SDS011;10455;48.732;10.266;2023-06-10T07:50:27;548.83;;;518.55;;
20593;SDS011;10455;48.732;10.266;2023-06-10T07:55:30;668.85;;;620.55;;
20593;SDS011;10455;48.732;10.266;2023-06-10T08:00:32;651.53;;;604.95;;
20593;SDS011;10455;48.732;10.266;2023-06-10T08:05:34;768.40;;;694.83;;
20593;SDS011;10455;48.732;10.266;2023-06-10T08:10:37;672.92;;;625.03;;
20593;SDS011;10455;48.732;10.266;2023-06-10T08:15:39;470.08;;;445.42;;
20593;SDS011;10455;48.732;10.266;2023-06-10T08:20:41;630.42;;;587.50;;
20593;SDS011;10455;48.732;10.266;2023-06-10T08:25:44;453.90;;;431.42;;
20593;SDS011;10455;48.732;10.266;2023-06-10T08:30:46;518.05;;;479.08;;
20593;SDS011;10455;48.732;10.266;2023-06-10T08:35:48;704.33;;;622.67;;
20593;SDS011;10455;48.732;10.266;2023-06-10T08:40:51;446.73;;;408.30;;
20593;SDS011;10455;48.732;10.266;2023-06-10T08:45:59;688.85;;;512.15;;
20593;SDS011;10455;48.732;10.266;2023-06-10T08:51:03;319.13;;;295.60;;
20593;SDS011;10455;48.732;10.266;2023-06-10T08:56:07;259.70;;;242.93;;
20593;SDS011;10455;48.732;10.266;2023-06-10T09:01:11;545.70;;;505.52;;
20593;SDS011;10455;48.732;10.266;2023-06-10T09:06:14;354.33;;;331.55;;
20593;SDS011;10455;48.732;10.266;2023-06-10T09:11:17;299.30;;;277.27;;
20593;SDS011;10455;48.732;10.266;2023-06-10T09:16:19;575.08;;;527.85;;
20593;SDS011;10455;48.732;10.266;2023-06-10T09:21:21;493.55;;;468.50;;
20593;SDS011;10455;48.732;10.266;2023-06-10T09:26:28;488.33;;;462.60;;
20593;SDS011;10455;48.732;10.266;2023-06-10T09:31:31;410.45;;;388.85;;
20593;SDS011;10455;48.732;10.266;2023-06-10T09:36:35;476.83;;;452.77;;
20593;SDS011;10455;48.732;10.266;2023-06-10T09:41:40;497.92;;;469.83;;
20593;SDS011;10455;48.732;10.266;2023-06-10T09:46:43;610.47;;;554.58;;
20593;SDS011;10455;48.732;10.266;2023-06-10T09:51:50;464.45;;;442.08;;
20593;SDS011;10455;48.732;10.266;2023-06-10T09:56:54;440.27;;;412.00;;
20593;SDS011;10455;48.732;10.266;2023-06-10T10:01:56;384.73;;;366.02;;
20593;SDS011;10455;48.732;10.266;2023-06-10T10:07:00;583.35;;;533.88;;
20593;SDS011;10455;48.732;10.266;2023-06-10T10:12:04;237.40;;;222.25;;
20593;SDS011;10455;48.732;10.266;2023-06-10T10:17:11;189.98;;;181.18;;
20593;SDS011;10455;48.732;10.266;2023-06-10T10:22:18;288.42;;;269.10;;
20593;SDS011;10455;48.732;10.266;2023-06-10T10:27:27;412.52;;;375.65;;
20593;SDS011;10455;48.732;10.266;2023-06-10T10:32:37;304.40;;;280.92;;
20593;SDS011;10455;48.732;10.266;2023-06-10T10:37:43;147.73;;;140.13;;
20593;SDS011;10455;48.732;10.266;2023-06-10T10:42:48;199.50;;;186.40;;
20593;SDS011;10455;48.732;10.266;2023-06-10T10:47:52;387.42;;;350.20;;
20593;SDS011;10455;48.732;10.266;2023-06-10T10:52:56;279.17;;;263.15;;
20593;SDS011;10455;48.732;10.266;2023-06-10T10:58:03;210.60;;;198.57;;
20593;SDS011;10455;48.732;10.266;2023-06-10T11:03:06;371.83;;;348.17;;
20593;SDS011;10455;48.732;10.266;2023-06-10T11:08:09;967.17;;;760.28;;
20593;SDS011;10455;48.732;10.266;2023-06-10T11:13:14;656.00;;;538.63;;
20593;SDS011;10455;48.732;10.266;2023-06-10T11:18:22;198.23;;;185.15;;
20593;SDS011;10455;48.732;10.266;2023-06-10T11:23:34;414.45;;;372.98;;
20593;SDS011;10455;48.732;10.266;2023-06-10T11:28:42;216.10;;;206.80;;
20593;SDS011;10455;48.732;10.266;2023-06-10T11:33:59;241.00;;;229.18;;
20593;SDS011;10455;48.732;10.266;2023-06-10T11:39:03;550.75;;;492.70;;
20593;SDS011;10455;48.732;10.266;2023-06-10T11:44:11;546.83;;;485.67;;
20593;SDS011;10455;48.732;10.266;2023-06-10T11:49:14;466.63;;;419.10;;
20593;SDS011;10455;48.732;10.266;2023-06-10T11:54:16;170.13;;;159.48;;
20593;SDS011;10455;48.732;10.266;2023-06-10T11:59:21;224.40;;;211.75;;
20593;SDS011;10455;48.732;10.266;2023-06-10T12:04:28;277.30;;;259.23;;
20593;SDS011;10455;48.732;10.266;2023-06-10T12:09:30;204.40;;;192.10;;
20593;SDS011;10455;48.732;10.266;2023-06-10T12:14:53;509.92;;;461.88;;
20593;SDS011;10455;48.732;10.266;2023-06-10T12:19:56;1488.60;;;783.25;;
20593;SDS011;10455;48.732;10.266;2023-06-10T12:25:00;203.52;;;191.98;;
20593;SDS011;10455;48.732;10.266;2023-06-10T12:30:06;190.38;;;179.77;;
20593;SDS011;10455;48.732;10.266;2023-06-10T12:35:09;359.88;;;325.77;;
20593;SDS011;10455;48.732;10.266;2023-06-10T12:40:12;843.50;;;558.28;;
20593;SDS011;10455;48.732;10.266;2023-06-10T12:45:15;481.48;;;421.50;;
20593;SDS011;10455;48.732;10.266;2023-06-10T12:50:28;308.88;;;287.95;;
20593;SDS011;10455;48.732;10.266;2023-06-10T12:55:31;438.50;;;396.48;;
20593;SDS011;10455;48.732;10.266;2023-06-10T13:00:35;370.10;;;341.65;;
20593;SDS011;10455;48.732;10.266;2023-06-10T13:05:37;598.40;;;490.35;;
20593;SDS011;10455;48.732;10.266;2023-06-10T13:10:39;346.08;;;323.30;;
20593;SDS011;10455;48.732;10.266;2023-06-10T13:15:43;470.23;;;427.08;;
20593;SDS011;10455;48.732;10.266;2023-06-10T13:20:45;739.92;;;634.92;;
20593;SDS011;10455;48.732;10.266;2023-06-10T13:25:47;718.10;;;642.25;;
20593;SDS011;10455;48.732;10.266;2023-06-10T13:30:50;468.67;;;427.42;;
20593;SDS011;10455;48.732;10.266;2023-06-10T13:35:52;448.42;;;408.35;;
20593;SDS011;10455;48.732;10.266;2023-06-10T13:40:54;582.78;;;525.83;;
20593;SDS011;10455;48.732;10.266;2023-06-10T13:45:57;428.40;;;397.70;;
20593;SDS011;10455;48.732;10.266;2023-06-10T13:50:59;307.00;;;293.63;;
20593;SDS011;10455;48.732;10.266;2023-06-10T13:56:01;450.38;;;423.05;;
20593;SDS011;10455;48.732;10.266;2023-06-10T14:01:04;552.17;;;482.25;;
20593;SDS011;10455;48.732;10.266;2023-06-10T14:06:06;557.03;;;499.77;;
20593;SDS011;10455;48.732;10.266;2023-06-10T14:11:08;232.88;;;220.15;;
20593;SDS011;10455;48.732;10.266;2023-06-10T14:16:12;243.93;;;232.55;;
20593;SDS011;10455;48.732;10.266;2023-06-10T14:21:14;907.25;;;649.95;;
20593;SDS011;10455;48.732;10.266;2023-06-10T14:26:16;405.45;;;382.40;;
20593;SDS011;10455;48.732;10.266;2023-06-10T14:31:19;482.98;;;444.58;;
20593;SDS011;10455;48.732;10.266;2023-06-10T14:36:21;252.88;;;241.18;;
20593;SDS011;10455;48.732;10.266;2023-06-10T14:41:25;301.83;;;285.08;;
20593;SDS011;10455;48.732;10.266;2023-06-10T14:46:28;443.67;;;405.15;;
20593;SDS011;10455;48.732;10.266;2023-06-10T14:51:30;259.58;;;241.88;;
20593;SDS011;10455;48.732;10.266;2023-06-10T14:56:32;418.02;;;383.17;;
20593;SDS011;10455;48.732;10.266;2023-06-10T15:01:35;250.75;;;237.05;;
20593;SDS011;10455;48.732;10.266;2023-06-10T15:06:37;642.17;;;577.70;;
20593;SDS011;10455;48.732;10.266;2023-06-10T15:11:39;675.35;;;605.58;;
20593;SDS011;10455;48.732;10.266;2023-06-10T15:16:43;351.73;;;330.48;;
20593;SDS011;10455;48.732;10.266;2023-06-10T15:21:44;594.00;;;535.58;;
20593;SDS011;10455;48.732;10.266;2023-06-10T15:26:46;428.30;;;397.70;;
20593;SDS011;10455;48.732;10.266;2023-06-10T15:31:50;312.13;;;295.85;;
20593;SDS011;10455;48.732;10.266;2023-06-10T15:36:51;458.80;;;427.08;;
20593;SDS011;10455;48.732;10.266;2023-06-10T15:41:53;440.73;;;402.35;;
20593;SDS011;10455;48.732;10.266;2023-06-10T15:46:57;325.73;;;302.80;;
20593;SDS011;10455;48.732;10.266;2023-06-10T15:51:58;324.58;;;295.35;;
20593;SDS011;10455;48.732;10.266;2023-06-10T15:57:00;100.93;;;96.55;;
20593;SDS011;10455;48.732;10.266;2023-06-10T16:02:05;162.68;;;155.40;;
20593;SDS011;10455;48.732;10.266;2023-06-10T16:07:07;496.88;;;452.35;;
20593;SDS011;10455;48.732;10.266;2023-06-10T16:12:09;269.80;;;250.80;;
20593;SDS011;10455;48.732;10.266;2023-06-10T16:17:12;128.57;;;122.35;;
20593;SDS011;10455;48.732;10.266;2023-06-10T16:22:14;191.32;;;181.60;;
20593;SDS011;10455;48.732;10.266;2023-06-10T16:27:16;211.20;;;201.05;;
20593;SDS011;10455;48.732;10.266;2023-06-10T16:32:20;403.38;;;365.23;;
20593;SDS011;10455;48.732;10.266;2023-06-10T16:37:22;217.15;;;201.85;;
20593;SDS011;10455;48.732;10.266;2023-06-10T16:42:24;197.70;;;183.27;;
20593;SDS011;10455;48.732;10.266;2023-06-10T16:47:27;316.67;;;291.70;;
20593;SDS011;10455;48.732;10.266;2023-06-10T16:52:29;67.28;;;64.25;;
20593;SDS011;10455;48.732;10.266;2023-06-10T16:57:31;246.32;;;228.75;;
20593;SDS011;10455;48.732;10.266;2023-06-10T17:02:34;466.85;;;414.65;;
20593;SDS011;10455;48.732;10.266;2023-06-10T17:07:36;588.17;;;474.95;;
20593;SDS011;10455;48.732;10.266;2023-06-10T17:12:38;258.17;;;242.60;;
20593;SDS011;10455;48.732;10.266;2023-06-10T17:17:41;247.60;;;231.95;;
20593;SDS011;10455;48.732;10.266;2023-06-10T17:22:43;446.30;;;375.38;;
20593;SDS011;10455;48.732;10.266;2023-06-10T17:27:45;175.52;;;165.02;;
20593;SDS011;10455;48.732;10.266;2023-06-10T17:32:49;340.98;;;318.60;;
20593;SDS011;10455;48.732;10.266;2023-06-10T17:37:51;207.00;;;195.30;;
20593;SDS011;10455;48.732;10.266;2023-06-10T17:42:53;326.17;;;303.58;;
20593;SDS011;10455;48.732;10.266;2023-06-10T17:47:56;443.00;;;411.40;;
20593;SDS011;10455;48.732;10.266;2023-06-10T17:52:58;330.65;;;310.77;;
20593;SDS011;10455;48.732;10.266;2023-06-10T17:58:00;334.60;;;314.92;;
20593;SDS011;10455;48.732;10.266;2023-06-10T18:03:03;372.60;;;350.83;;
20593;SDS011;10455;48.732;10.266;2023-06-10T18:08:05;1610.45;;;777.20;;
20593;SDS011;10455;48.732;10.266;2023-06-10T18:13:07;782.47;;;701.35;;
20593;SDS011;10455;48.732;10.266;2023-06-10T18:18:10;946.05;;;772.80;;
20593;SDS011;10455;48.732;10.266;2023-06-10T18:23:12;1307.82;;;858.13;;
20593;SDS011;10455;48.732;10.266;2023-06-10T18:28:14;609.42;;;568.42;;
20593;SDS011;10455;48.732;10.266;2023-06-10T18:33:17;542.80;;;512.70;;
20593;SDS011;10455;48.732;10.266;2023-06-10T18:38:19;582.80;;;544.55;;
20593;SDS011;10455;48.732;10.266;2023-06-10T18:43:21;567.50;;;533.72;;
20593;SDS011;10455;48.732;10.266;2023-06-10T18:48:24;651.20;;;605.03;;
20593;SDS011;10455;48.732;10.266;2023-06-10T18:53:26;688.65;;;638.10;;
20593;SDS011;10455;48.732;10.266;2023-06-10T18:58:29;623.08;;;584.70;;
20593;SDS011;10455;48.732;10.266;2023-06-10T19:03:34;675.40;;;632.97;;
20593;SDS011;10455;48.732;10.266;2023-06-10T19:08:35;725.28;;;665.60;;
20593;SDS011;10455;48.732;10.266;2023-06-10T19:13:37;751.65;;;695.38;;
20593;SDS011;10455;48.732;10.266;2023-06-10T19:18:40;771.78;;;714.10;;
20593;SDS011;10455;48.732;10.266;2023-06-10T19:23:42;817.10;;;760.05;;
20593;SDS011;10455;48.732;10.266;2023-06-10T19:28:45;884.75;;;820.13;;
20593;SDS011;10455;48.732;10.266;2023-06-10T19:33:48;880.55;;;817.42;;
20593;SDS011;10455;48.732;10.266;2023-06-10T19:38:50;893.40;;;827.00;;
20593;SDS011;10455;48.732;10.266;2023-06-10T19:43:52;836.33;;;775.83;;
20593;SDS011;10455;48.732;10.266;2023-06-10T19:48:55;1026.97;;;940.65;;
20593;SDS011;10455;48.732;10.266;2023-06-10T19:53:58;898.67;;;835.03;;
20593;SDS011;10455;48.732;10.266;2023-06-10T19:59:00;880.00;;;818.45;;
20593;SDS011;10455;48.732;10.266;2023-06-10T20:04:03;965.72;;;887.55;;
20593;SDS011;10455;48.732;10.266;2023-06-10T20:09:05;942.25;;;867.17;;
20593;SDS011;10455;48.732;10.266;2023-06-10T20:14:07;999.28;;;918.38;;
20593;SDS011;10455;48.732;10.266;2023-06-10T20:19:10;839.42;;;776.60;;
20593;SDS011;10455;48.732;10.266;2023-06-10T20:24:12;890.33;;;824.28;;
20593;SDS011;10455;48.732;10.266;2023-06-10T20:29:14;1005.45;;;917.67;;
20593;SDS011;10455;48.732;10.266;2023-06-10T20:34:17;1035.40;;;945.60;;
20593;SDS011;10455;48.732;10.266;2023-06-10T20:39:19;1049.38;;;959.42;;
20593;SDS011;10455;48.732;10.266;2023-06-10T20:44:21;1048.50;;;957.10;;
20593;SDS011;10455;48.732;10.266;2023-06-10T20:49:25;1092.63;;;994.60;;
20593;SDS011;10455;48.732;10.266;2023-06-10T20:54:27;1029.13;;;938.25;;
20593;SDS011;10455;48.732;10.266;2023-06-10T20:59:28;1003.10;;;915.88;;
20593;SDS011;10455;48.732;10.266;2023-06-10T21:04:32;1004.08;;;925.15;;
20593;SDS011;10455;48.732;10.266;2023-06-10T21:09:34;1090.78;;;991.55;;
20593;SDS011;10455;48.732;10.266;2023-06-10T21:14:36;976.42;;;897.05;;
20593;SDS011;10455;48.732;10.266;2023-06-10T21:19:39;932.40;;;863.67;;
20593;SDS011;10455;48.732;10.266;2023-06-10T21:24:41;847.95;;;788.92;;
20593;SDS011;10455;48.732;10.266;2023-06-10T21:29:43;948.03;;;877.70;;
20593;SDS011;10455;48.732;10.266;2023-06-10T21:34:46;994.35;;;918.13;;
20593;SDS011;10455;48.732;10.266;2023-06-10T21:39:48;1010.33;;;932.13;;
20593;SDS011;10455;48.732;10.266;2023-06-10T21:44:50;985.55;;;913.88;;
20593;SDS011;10455;48.732;10.266;2023-06-10T21:49:53;925.17;;;858.33;;
20593;SDS011;10455;48.732;10.266;2023-06-10T21:54:55;953.05;;;885.38;;
20593;SDS011;10455;48.732;10.266;2023-06-10T21:59:57;890.55;;;828.20;;
20593;SDS011;10455;48.732;10.266;2023-06-10T22:05:00;973.15;;;897.78;;
20593;SDS011;10455;48.732;10.266;2023-06-10T22:10:02;979.40;;;904.10;;
20593;SDS011;10455;48.732;10.266;2023-06-10T22:15:04;1014.30;;;932.72;;
20593;SDS011;10455;48.732;10.266;2023-06-10T22:20:09;954.25;;;880.08;;
20593;SDS011;10455;48.732;10.266;2023-06-10T22:25:12;944.85;;;876.78;;
20593;SDS011;10455;48.732;10.266;2023-06-10T22:30:15;920.40;;;855.40;;
20593;SDS011;10455;48.732;10.266;2023-06-10T22:35:18;946.22;;;878.70;;
20593;SDS011;10455;48.732;10.266;2023-06-10T22:40:20;952.47;;;880.53;;
20593;SDS011;10455;48.732;10.266;2023-06-10T22:45:22;1049.15;;;963.53;;
20593;SDS011;10455;48.732;10.266;2023-06-10T22:50:25;975.75;;;901.22;;
20593;SDS011;10455;48.732;10.266;2023-06-10T22:55:27;959.78;;;887.72;;
20593;SDS011;10455;48.732;10.266;2023-06-10T23:00:29;948.13;;;880.08;;
20593;SDS011;10455;48.732;10.266;2023-06-10T23:05:32;934.03;;;866.45;;
20593;SDS011;10455;48.732;10.266;2023-06-10T23:10:34;910.05;;;845.10;;
20593;SDS011;10455;48.732;10.266;2023-06-10T23:15:36;1210.25;;;897.70;;
20593;SDS011;10455;48.732;10.266;2023-06-10T23:20:39;1488.35;;;942.88;;
20593;SDS011;10455;48.732;10.266;2023-06-10T23:25:41;1045.63;;;955.17;;
20593;SDS011;10455;48.732;10.266;2023-06-10T23:30:44;1042.82;;;948.97;;
20593;SDS011;10455;48.732;10.266;2023-06-10T23:35:48;1042.80;;;960.50;;
20593;SDS011;10455;48.732;10.266;2023-06-10T23:40:50;952.13;;;884.80;;
20593;SDS011;10455;48.732;10.266;2023-06-10T23:45:51;904.92;;;842.17;;
20593;SDS011;10455;48.732;10.266;2023-06-10T23:50:55;946.55;;;880.97;;
20593;SDS011;10455;48.732;10.266;2023-06-10T23:55:59;879.15;;;821.20;;
